LHBP/BUD METAR and TAF weather

Enter ICAO airport designator
Station Type Date Time Source
LHBP METAR 2022/11/26 08:12 UTC NOAA

LHBP 260812Z VRB02KT 1000 R31L/0900D R31R/P2000N BCFG BR OVC003 02/02 Q1027 TEMPO 0700 FG


Station Type Date Time Source
LHBP Decoded METAR 2022/11/26 08:12 UTC NOAA

Budapest / Ferihegy, Hungary (LHBP) 47-26N 019-16E 185M
Nov 26, 2022 - 03:12 AM EST / 2022.11.26 0812 UTC
Wind: Variable at 2 MPH (2 KT):0
Visibility: less than 1 mile:0
Sky conditions: overcast
Weather: patches of fog; mist
Temperature: 35 F (2 C)
Dew Point: 35 F (2 C)
Relative Humidity: 100%
Pressure (altimeter): 30.33 in. Hg (1027 hPa)
ob: LHBP 260812Z VRB02KT 1000 R31L/0900D R31R/P2000N BCFG BR OVC003 02/02 Q1027 TEMPO 0700 FG
cycle: 8

Station Type Date Time Source
LHBP TAF 2022/11/26 06:27 UTC NOAA

TAF TAF LHBP 260515Z 2606/2706 VRB03KT 3000 BR BKN003 BKN100
TEMPO 2606/2611 0300 -DZRA FG VV001
BECMG 2610/2613 30005KT
TEMPO 2611/2618 5000 -RA BR SCT004 BKN008 OVC020
TEMPO 2618/2706 36003KT 0500 -RADZ FG OVC001

Example: see airport list